sensor_id;sensor_type;location;lat;lon;timestamp;P1;durP1;ratioP1;P2;durP2;ratioP2
67037;SDS011;53940;53.204;6.590;2022-09-09T00:02:41;0.60;;;0.40;;
67037;SDS011;53940;53.204;6.590;2022-09-09T00:09:12;0.68;;;0.43;;
67037;SDS011;53940;53.204;6.590;2022-09-09T00:12:18;0.70;;;0.50;;
67037;SDS011;53940;53.204;6.590;2022-09-09T00:15:55;1.25;;;0.50;;
67037;SDS011;53940;53.204;6.590;2022-09-09T00:22:30;1.33;;;0.43;;
67037;SDS011;53940;53.204;6.590;2022-09-09T00:32:14;0.50;;;0.45;;
67037;SDS011;53940;53.204;6.590;2022-09-09T00:38:28;0.93;;;0.55;;
67037;SDS011;53940;53.204;6.590;2022-09-09T00:42:15;0.93;;;0.50;;
67037;SDS011;53940;53.204;6.590;2022-09-09T00:48:35;0.82;;;0.40;;
67037;SDS011;53940;53.204;6.590;2022-09-09T00:51:56;1.05;;;0.60;;
67037;SDS011;53940;53.204;6.590;2022-09-09T00:58:33;1.33;;;0.57;;
67037;SDS011;53940;53.204;6.590;2022-09-09T01:01:34;0.73;;;0.40;;
67037;SDS011;53940;53.204;6.590;2022-09-09T01:04:35;0.60;;;0.50;;
67037;SDS011;53940;53.204;6.590;2022-09-09T01:07:36;1.45;;;0.60;;
67037;SDS011;53940;53.204;6.590;2022-09-09T01:10:49;1.25;;;0.60;;
67037;SDS011;53940;53.204;6.590;2022-09-09T01:14:11;1.02;;;0.60;;
67037;SDS011;53940;53.204;6.590;2022-09-09T01:17:20;1.23;;;0.65;;
67037;SDS011;53940;53.204;6.590;2022-09-09T01:20:30;1.23;;;0.70;;
67037;SDS011;53940;53.204;6.590;2022-09-09T01:23:45;1.27;;;0.60;;
67037;SDS011;53940;53.204;6.590;2022-09-09T01:27:08;1.08;;;0.70;;
67037;SDS011;53940;53.204;6.590;2022-09-09T01:30:11;1.00;;;0.70;;
67037;SDS011;53940;53.204;6.590;2022-09-09T01:33:15;1.33;;;0.60;;
67037;SDS011;53940;53.204;6.590;2022-09-09T01:39:24;0.93;;;0.60;;
67037;SDS011;53940;53.204;6.590;2022-09-09T01:42:26;1.30;;;0.50;;
67037;SDS011;53940;53.204;6.590;2022-09-09T01:45:26;1.05;;;0.70;;
67037;SDS011;53940;53.204;6.590;2022-09-09T01:48:27;1.45;;;0.60;;
67037;SDS011;53940;53.204;6.590;2022-09-09T01:51:27;0.70;;;0.47;;
67037;SDS011;53940;53.204;6.590;2022-09-09T01:54:29;1.50;;;0.60;;
67037;SDS011;53940;53.204;6.590;2022-09-09T02:00:58;0.60;;;0.60;;
67037;SDS011;53940;53.204;6.590;2022-09-09T02:04:09;1.02;;;0.70;;
67037;SDS011;53940;53.204;6.590;2022-09-09T02:07:42;1.05;;;0.60;;
67037;SDS011;53940;53.204;6.590;2022-09-09T02:10:58;0.85;;;0.70;;
67037;SDS011;53940;53.204;6.590;2022-09-09T02:20:12;0.88;;;0.60;;
67037;SDS011;53940;53.204;6.590;2022-09-09T02:23:14;1.38;;;0.70;;
67037;SDS011;53940;53.204;6.590;2022-09-09T02:26:15;1.70;;;0.60;;
67037;SDS011;53940;53.204;6.590;2022-09-09T02:29:24;1.00;;;0.60;;
67037;SDS011;53940;53.204;6.590;2022-09-09T02:32:30;0.77;;;0.60;;
67037;SDS011;53940;53.204;6.590;2022-09-09T02:35:33;1.17;;;0.70;;
67037;SDS011;53940;53.204;6.590;2022-09-09T02:38:38;1.00;;;0.60;;
67037;SDS011;53940;53.204;6.590;2022-09-09T02:41:44;1.17;;;0.60;;
67037;SDS011;53940;53.204;6.590;2022-09-09T02:44:44;0.77;;;0.60;;
67037;SDS011;53940;53.204;6.590;2022-09-09T02:47:55;0.98;;;0.50;;
67037;SDS011;53940;53.204;6.590;2022-09-09T02:51:15;1.77;;;0.90;;
67037;SDS011;53940;53.204;6.590;2022-09-09T02:54:31;0.82;;;0.50;;
67037;SDS011;53940;53.204;6.590;2022-09-09T02:57:32;1.30;;;0.60;;
67037;SDS011;53940;53.204;6.590;2022-09-09T03:00:34;0.90;;;0.60;;
67037;SDS011;53940;53.204;6.590;2022-09-09T03:03:36;0.90;;;0.50;;
67037;SDS011;53940;53.204;6.590;2022-09-09T03:06:36;1.05;;;0.50;;
67037;SDS011;53940;53.204;6.590;2022-09-09T03:09:36;1.00;;;0.68;;
67037;SDS011;53940;53.204;6.590;2022-09-09T03:12:37;1.10;;;0.60;;
67037;SDS011;53940;53.204;6.590;2022-09-09T03:15:37;0.80;;;0.50;;
67037;SDS011;53940;53.204;6.590;2022-09-09T03:18:38;0.90;;;0.60;;
67037;SDS011;53940;53.204;6.590;2022-09-09T03:21:38;1.08;;;0.52;;
67037;SDS011;53940;53.204;6.590;2022-09-09T03:24:39;1.25;;;0.70;;
67037;SDS011;53940;53.204;6.590;2022-09-09T03:27:40;0.98;;;0.52;;
67037;SDS011;53940;53.204;6.590;2022-09-09T03:30:40;0.93;;;0.55;;
67037;SDS011;53940;53.204;6.590;2022-09-09T03:33:41;0.85;;;0.60;;
67037;SDS011;53940;53.204;6.590;2022-09-09T03:36:41;0.60;;;0.50;;
67037;SDS011;53940;53.204;6.590;2022-09-09T03:39:41;0.65;;;0.40;;
67037;SDS011;53940;53.204;6.590;2022-09-09T03:42:42;1.63;;;0.60;;
67037;SDS011;53940;53.204;6.590;2022-09-09T03:45:46;0.75;;;0.60;;
67037;SDS011;53940;53.204;6.590;2022-09-09T03:48:50;1.92;;;0.80;;
67037;SDS011;53940;53.204;6.590;2022-09-09T03:51:52;2.10;;;0.60;;
67037;SDS011;53940;53.204;6.590;2022-09-09T03:54:52;0.80;;;0.50;;
67037;SDS011;53940;53.204;6.590;2022-09-09T03:57:54;0.98;;;0.52;;
67037;SDS011;53940;53.204;6.590;2022-09-09T04:00:55;0.98;;;0.40;;
67037;SDS011;53940;53.204;6.590;2022-09-09T04:03:59;1.02;;;0.60;;
67037;SDS011;53940;53.204;6.590;2022-09-09T04:07:02;1.60;;;0.50;;
67037;SDS011;53940;53.204;6.590;2022-09-09T04:10:02;0.55;;;0.47;;
67037;SDS011;53940;53.204;6.590;2022-09-09T04:13:03;0.88;;;0.60;;
67037;SDS011;53940;53.204;6.590;2022-09-09T04:16:04;1.13;;;0.60;;
67037;SDS011;53940;53.204;6.590;2022-09-09T04:19:05;1.05;;;0.65;;
67037;SDS011;53940;53.204;6.590;2022-09-09T04:22:07;1.15;;;0.55;;
67037;SDS011;53940;53.204;6.590;2022-09-09T04:25:08;0.90;;;0.40;;
67037;SDS011;53940;53.204;6.590;2022-09-09T04:28:08;0.98;;;0.60;;
67037;SDS011;53940;53.204;6.590;2022-09-09T04:31:10;1.40;;;0.60;;
67037;SDS011;53940;53.204;6.590;2022-09-09T04:34:14;1.25;;;0.60;;
67037;SDS011;53940;53.204;6.590;2022-09-09T04:37:15;1.52;;;0.50;;
67037;SDS011;53940;53.204;6.590;2022-09-09T04:40:15;0.32;;;0.30;;
67037;SDS011;53940;53.204;6.590;2022-09-09T04:43:15;1.17;;;0.50;;
67037;SDS011;53940;53.204;6.590;2022-09-09T04:46:15;0.70;;;0.50;;
67037;SDS011;53940;53.204;6.590;2022-09-09T04:49:17;0.90;;;0.50;;
67037;SDS011;53940;53.204;6.590;2022-09-09T04:52:17;1.52;;;0.40;;
67037;SDS011;53940;53.204;6.590;2022-09-09T04:55:18;0.70;;;0.40;;
67037;SDS011;53940;53.204;6.590;2022-09-09T04:58:18;1.83;;;0.50;;
67037;SDS011;53940;53.204;6.590;2022-09-09T05:01:19;1.00;;;0.40;;
67037;SDS011;53940;53.204;6.590;2022-09-09T05:04:24;0.38;;;0.30;;
67037;SDS011;53940;53.204;6.590;2022-09-09T05:07:24;0.90;;;0.40;;
67037;SDS011;53940;53.204;6.590;2022-09-09T05:10:27;0.85;;;0.40;;
67037;SDS011;53940;53.204;6.590;2022-09-09T05:13:27;0.85;;;0.47;;
67037;SDS011;53940;53.204;6.590;2022-09-09T05:16:28;0.52;;;0.38;;
67037;SDS011;53940;53.204;6.590;2022-09-09T05:19:28;0.65;;;0.47;;
67037;SDS011;53940;53.204;6.590;2022-09-09T05:22:30;1.00;;;0.50;;
67037;SDS011;53940;53.204;6.590;2022-09-09T05:25:31;0.70;;;0.32;;
67037;SDS011;53940;53.204;6.590;2022-09-09T05:28:33;1.10;;;0.50;;
67037;SDS011;53940;53.204;6.590;2022-09-09T05:31:35;0.68;;;0.40;;
67037;SDS011;53940;53.204;6.590;2022-09-09T05:34:35;0.38;;;0.30;;
67037;SDS011;53940;53.204;6.590;2022-09-09T05:37:37;0.70;;;0.43;;
67037;SDS011;53940;53.204;6.590;2022-09-09T05:40:37;0.85;;;0.45;;
67037;SDS011;53940;53.204;6.590;2022-09-09T05:43:38;0.73;;;0.38;;
67037;SDS011;53940;53.204;6.590;2022-09-09T05:46:39;0.85;;;0.50;;
67037;SDS011;53940;53.204;6.590;2022-09-09T05:49:39;0.57;;;0.32;;
67037;SDS011;53940;53.204;6.590;2022-09-09T05:52:40;0.77;;;0.50;;
67037;SDS011;53940;53.204;6.590;2022-09-09T05:55:40;1.00;;;0.50;;
67037;SDS011;53940;53.204;6.590;2022-09-09T05:58:42;1.20;;;0.50;;
67037;SDS011;53940;53.204;6.590;2022-09-09T06:01:46;1.40;;;0.50;;
67037;SDS011;53940;53.204;6.590;2022-09-09T06:04:47;0.50;;;0.40;;
67037;SDS011;53940;53.204;6.590;2022-09-09T06:07:47;0.75;;;0.52;;
67037;SDS011;53940;53.204;6.590;2022-09-09T06:10:50;0.60;;;0.40;;
67037;SDS011;53940;53.204;6.590;2022-09-09T06:13:52;0.75;;;0.40;;
67037;SDS011;53940;53.204;6.590;2022-09-09T06:16:53;1.98;;;0.63;;
67037;SDS011;53940;53.204;6.590;2022-09-09T06:19:54;0.63;;;0.30;;
67037;SDS011;53940;53.204;6.590;2022-09-09T06:22:55;0.52;;;0.32;;
67037;SDS011;53940;53.204;6.590;2022-09-09T06:29:06;0.63;;;0.40;;
67037;SDS011;53940;53.204;6.590;2022-09-09T06:32:06;0.30;;;0.30;;
67037;SDS011;53940;53.204;6.590;2022-09-09T06:35:08;0.60;;;0.40;;
67037;SDS011;53940;53.204;6.590;2022-09-09T06:38:09;0.95;;;0.40;;
67037;SDS011;53940;53.204;6.590;2022-09-09T06:41:10;1.67;;;0.60;;
67037;SDS011;53940;53.204;6.590;2022-09-09T06:44:12;0.63;;;0.50;;
67037;SDS011;53940;53.204;6.590;2022-09-09T06:47:12;1.08;;;0.40;;
67037;SDS011;53940;53.204;6.590;2022-09-09T06:50:12;0.55;;;0.40;;
67037;SDS011;53940;53.204;6.590;2022-09-09T06:53:15;0.47;;;0.30;;
67037;SDS011;53940;53.204;6.590;2022-09-09T06:56:20;1.05;;;0.38;;
67037;SDS011;53940;53.204;6.590;2022-09-09T06:59:21;0.93;;;0.40;;
67037;SDS011;53940;53.204;6.590;2022-09-09T07:02:22;0.70;;;0.40;;
67037;SDS011;53940;53.204;6.590;2022-09-09T07:05:22;0.65;;;0.32;;
67037;SDS011;53940;53.204;6.590;2022-09-09T07:08:23;2.30;;;0.50;;
67037;SDS011;53940;53.204;6.590;2022-09-09T07:11:28;1.13;;;0.57;;
67037;SDS011;53940;53.204;6.590;2022-09-09T07:14:30;0.60;;;0.43;;
67037;SDS011;53940;53.204;6.590;2022-09-09T07:17:30;1.08;;;0.40;;
67037;SDS011;53940;53.204;6.590;2022-09-09T07:20:31;0.68;;;0.40;;
67037;SDS011;53940;53.204;6.590;2022-09-09T07:23:31;0.65;;;0.38;;
67037;SDS011;53940;53.204;6.590;2022-09-09T07:26:32;0.95;;;0.40;;
67037;SDS011;53940;53.204;6.590;2022-09-09T07:29:33;0.70;;;0.30;;
67037;SDS011;53940;53.204;6.590;2022-09-09T07:32:36;0.75;;;0.40;;
67037;SDS011;53940;53.204;6.590;2022-09-09T07:35:37;0.88;;;0.40;;
67037;SDS011;53940;53.204;6.590;2022-09-09T07:38:47;0.43;;;0.30;;
67037;SDS011;53940;53.204;6.590;2022-09-09T07:41:51;0.45;;;0.30;;
67037;SDS011;53940;53.204;6.590;2022-09-09T07:44:51;0.30;;;0.30;;
67037;SDS011;53940;53.204;6.590;2022-09-09T07:47:54;0.70;;;0.30;;
67037;SDS011;53940;53.204;6.590;2022-09-09T07:51:10;0.60;;;0.40;;
67037;SDS011;53940;53.204;6.590;2022-09-09T07:54:12;0.57;;;0.32;;
67037;SDS011;53940;53.204;6.590;2022-09-09T07:57:15;0.35;;;0.30;;
67037;SDS011;53940;53.204;6.590;2022-09-09T08:00:16;0.60;;;0.30;;
67037;SDS011;53940;53.204;6.590;2022-09-09T08:03:18;0.52;;;0.32;;
67037;SDS011;53940;53.204;6.590;2022-09-09T08:06:18;0.60;;;0.30;;
67037;SDS011;53940;53.204;6.590;2022-09-09T08:09:19;0.45;;;0.30;;
67037;SDS011;53940;53.204;6.590;2022-09-09T08:12:20;0.85;;;0.35;;
67037;SDS011;53940;53.204;6.590;2022-09-09T08:15:20;0.70;;;0.50;;
67037;SDS011;53940;53.204;6.590;2022-09-09T08:18:21;0.50;;;0.30;;
67037;SDS011;53940;53.204;6.590;2022-09-09T08:21:23;0.20;;;0.20;;
67037;SDS011;53940;53.204;6.590;2022-09-09T08:24:24;0.35;;;0.30;;
67037;SDS011;53940;53.204;6.590;2022-09-09T08:27:25;0.60;;;0.40;;
67037;SDS011;53940;53.204;6.590;2022-09-09T08:30:25;0.52;;;0.38;;
67037;SDS011;53940;53.204;6.590;2022-09-09T08:33:26;0.75;;;0.40;;
67037;SDS011;53940;53.204;6.590;2022-09-09T08:36:27;1.90;;;0.47;;
67037;SDS011;53940;53.204;6.590;2022-09-09T08:39:29;0.60;;;0.40;;
67037;SDS011;53940;53.204;6.590;2022-09-09T08:42:49;0.90;;;0.30;;
67037;SDS011;53940;53.204;6.590;2022-09-09T08:45:57;0.40;;;0.30;;
67037;SDS011;53940;53.204;6.590;2022-09-09T08:49:28;0.65;;;0.40;;
67037;SDS011;53940;53.204;6.590;2022-09-09T08:56:09;0.30;;;0.30;;
67037;SDS011;53940;53.204;6.590;2022-09-09T08:59:18;0.30;;;0.20;;
67037;SDS011;53940;53.204;6.590;2022-09-09T09:05:59;3.03;;;0.38;;
67037;SDS011;53940;53.204;6.590;2022-09-09T09:12:39;0.35;;;0.30;;
67037;SDS011;53940;53.204;6.590;2022-09-09T09:15:42;0.43;;;0.20;;
67037;SDS011;53940;53.204;6.590;2022-09-09T09:18:48;0.40;;;0.30;;
67037;SDS011;53940;53.204;6.590;2022-09-09T09:25:13;0.68;;;0.30;;
67037;SDS011;53940;53.204;6.590;2022-09-09T09:28:30;0.70;;;0.32;;
67037;SDS011;53940;53.204;6.590;2022-09-09T09:31:32;0.60;;;0.20;;
67037;SDS011;53940;53.204;6.590;2022-09-09T09:34:32;0.20;;;0.20;;
67037;SDS011;53940;53.204;6.590;2022-09-09T09:37:33;1.88;;;0.40;;
67037;SDS011;53940;53.204;6.590;2022-09-09T09:40:37;0.45;;;0.20;;
67037;SDS011;53940;53.204;6.590;2022-09-09T09:43:53;0.57;;;0.35;;
67037;SDS011;53940;53.204;6.590;2022-09-09T09:50:18;0.65;;;0.28;;
67037;SDS011;53940;53.204;6.590;2022-09-09T09:53:27;0.98;;;0.57;;
67037;SDS011;53940;53.204;6.590;2022-09-09T09:56:31;1.08;;;0.30;;
67037;SDS011;53940;53.204;6.590;2022-09-09T09:59:33;1.05;;;0.30;;
67037;SDS011;53940;53.204;6.590;2022-09-09T10:02:39;0.98;;;0.40;;
67037;SDS011;53940;53.204;6.590;2022-09-09T10:05:45;2.03;;;0.35;;
67037;SDS011;53940;53.204;6.590;2022-09-09T10:08:46;0.82;;;0.40;;
67037;SDS011;53940;53.204;6.590;2022-09-09T10:15:21;0.40;;;0.30;;
67037;SDS011;53940;53.204;6.590;2022-09-09T10:18:28;0.65;;;0.30;;
67037;SDS011;53940;53.204;6.590;2022-09-09T10:21:46;0.60;;;0.40;;
67037;SDS011;53940;53.204;6.590;2022-09-09T10:39:06;0.63;;;0.30;;
67037;SDS011;53940;53.204;6.590;2022-09-09T10:42:35;1.17;;;0.45;;
67037;SDS011;53940;53.204;6.590;2022-09-09T10:45:52;1.70;;;0.60;;
67037;SDS011;53940;53.204;6.590;2022-09-09T10:49:17;1.58;;;0.40;;
67037;SDS011;53940;53.204;6.590;2022-09-09T10:53:02;0.47;;;0.30;;
67037;SDS011;53940;53.204;6.590;2022-09-09T10:56:12;0.73;;;0.30;;
67037;SDS011;53940;53.204;6.590;2022-09-09T10:59:20;0.75;;;0.40;;
67037;SDS011;53940;53.204;6.590;2022-09-09T11:02:29;0.52;;;0.30;;
67037;SDS011;53940;53.204;6.590;2022-09-09T11:05:32;1.23;;;0.30;;
67037;SDS011;53940;53.204;6.590;2022-09-09T11:08:40;0.82;;;0.30;;
67037;SDS011;53940;53.204;6.590;2022-09-09T11:11:42;0.85;;;0.30;;
67037;SDS011;53940;53.204;6.590;2022-09-09T11:14:58;0.60;;;0.32;;
67037;SDS011;53940;53.204;6.590;2022-09-09T11:18:05;1.08;;;0.40;;
67037;SDS011;53940;53.204;6.590;2022-09-09T11:21:22;0.70;;;0.40;;
67037;SDS011;53940;53.204;6.590;2022-09-09T11:24:40;2.38;;;0.38;;
67037;SDS011;53940;53.204;6.590;2022-09-09T11:28:23;1.13;;;0.38;;
67037;SDS011;53940;53.204;6.590;2022-09-09T11:38:53;0.70;;;0.40;;
67037;SDS011;53940;53.204;6.590;2022-09-09T11:42:07;0.80;;;0.30;;
67037;SDS011;53940;53.204;6.590;2022-09-09T11:45:26;2.13;;;0.20;;
67037;SDS011;53940;53.204;6.590;2022-09-09T11:48:31;0.35;;;0.22;;
67037;SDS011;53940;53.204;6.590;2022-09-09T11:51:34;0.65;;;0.50;;
67037;SDS011;53940;53.204;6.590;2022-09-09T11:54:44;1.08;;;0.38;;
67037;SDS011;53940;53.204;6.590;2022-09-09T11:57:48;2.58;;;0.40;;
67037;SDS011;53940;53.204;6.590;2022-09-09T12:00:57;0.50;;;0.40;;
67037;SDS011;53940;53.204;6.590;2022-09-09T12:10:25;0.70;;;0.30;;
67037;SDS011;53940;53.204;6.590;2022-09-09T12:13:28;2.05;;;0.32;;
67037;SDS011;53940;53.204;6.590;2022-09-09T12:16:29;1.02;;;0.43;;
67037;SDS011;53940;53.204;6.590;2022-09-09T12:19:34;0.60;;;0.30;;
67037;SDS011;53940;53.204;6.590;2022-09-09T12:22:41;1.80;;;0.40;;
67037;SDS011;53940;53.204;6.590;2022-09-09T12:26:03;0.73;;;0.32;;
67037;SDS011;53940;53.204;6.590;2022-09-09T12:32:26;0.30;;;0.30;;
67037;SDS011;53940;53.204;6.590;2022-09-09T12:35:28;1.23;;;0.40;;
67037;SDS011;53940;53.204;6.590;2022-09-09T12:41:33;0.43;;;0.20;;
67037;SDS011;53940;53.204;6.590;2022-09-09T12:44:37;0.45;;;0.25;;
67037;SDS011;53940;53.204;6.590;2022-09-09T12:51:00;0.55;;;0.30;;
67037;SDS011;53940;53.204;6.590;2022-09-09T12:54:01;0.75;;;0.35;;
67037;SDS011;53940;53.204;6.590;2022-09-09T12:57:03;0.20;;;0.20;;
67037;SDS011;53940;53.204;6.590;2022-09-09T13:00:06;1.85;;;0.43;;
67037;SDS011;53940;53.204;6.590;2022-09-09T13:03:26;0.40;;;0.30;;
67037;SDS011;53940;53.204;6.590;2022-09-09T13:06:28;0.40;;;0.20;;
67037;SDS011;53940;53.204;6.590;2022-09-09T13:09:30;0.40;;;0.38;;
67037;SDS011;53940;53.204;6.590;2022-09-09T13:12:30;0.75;;;0.38;;
67037;SDS011;53940;53.204;6.590;2022-09-09T13:15:30;0.98;;;0.40;;
67037;SDS011;53940;53.204;6.590;2022-09-09T13:18:32;0.60;;;0.30;;
67037;SDS011;53940;53.204;6.590;2022-09-09T13:21:40;0.40;;;0.30;;
67037;SDS011;53940;53.204;6.590;2022-09-09T13:24:40;1.48;;;0.32;;
67037;SDS011;53940;53.204;6.590;2022-09-09T13:27:50;0.43;;;0.30;;
67037;SDS011;53940;53.204;6.590;2022-09-09T13:31:00;0.95;;;0.30;;
67037;SDS011;53940;53.204;6.590;2022-09-09T13:34:25;0.50;;;0.30;;
67037;SDS011;53940;53.204;6.590;2022-09-09T13:37:33;1.25;;;0.22;;
67037;SDS011;53940;53.204;6.590;2022-09-09T13:40:36;1.27;;;0.20;;
67037;SDS011;53940;53.204;6.590;2022-09-09T13:43:38;0.68;;;0.32;;
67037;SDS011;53940;53.204;6.590;2022-09-09T13:46:44;0.38;;;0.28;;
67037;SDS011;53940;53.204;6.590;2022-09-09T13:49:44;0.52;;;0.40;;
67037;SDS011;53940;53.204;6.590;2022-09-09T13:52:45;0.65;;;0.30;;
67037;SDS011;53940;53.204;6.590;2022-09-09T13:55:47;0.22;;;0.20;;
67037;SDS011;53940;53.204;6.590;2022-09-09T13:58:50;0.60;;;0.30;;
67037;SDS011;53940;53.204;6.590;2022-09-09T14:01:50;0.52;;;0.22;;
67037;SDS011;53940;53.204;6.590;2022-09-09T14:04:52;0.73;;;0.35;;
67037;SDS011;53940;53.204;6.590;2022-09-09T14:07:55;0.50;;;0.30;;
67037;SDS011;53940;53.204;6.590;2022-09-09T14:10:55;0.63;;;0.30;;
67037;SDS011;53940;53.204;6.590;2022-09-09T14:14:01;0.77;;;0.40;;
67037;SDS011;53940;53.204;6.590;2022-09-09T14:17:01;0.35;;;0.20;;
67037;SDS011;53940;53.204;6.590;2022-09-09T14:20:02;0.35;;;0.20;;
67037;SDS011;53940;53.204;6.590;2022-09-09T14:23:05;0.70;;;0.20;;
67037;SDS011;53940;53.204;6.590;2022-09-09T14:26:06;0.60;;;0.30;;
67037;SDS011;53940;53.204;6.590;2022-09-09T14:29:07;0.45;;;0.30;;
67037;SDS011;53940;53.204;6.590;2022-09-09T14:32:08;0.65;;;0.25;;
67037;SDS011;53940;53.204;6.590;2022-09-09T14:35:08;0.77;;;0.40;;
67037;SDS011;53940;53.204;6.590;2022-09-09T14:38:09;0.43;;;0.30;;
67037;SDS011;53940;53.204;6.590;2022-09-09T14:41:10;0.82;;;0.30;;
67037;SDS011;53940;53.204;6.590;2022-09-09T14:44:12;0.40;;;0.20;;
67037;SDS011;53940;53.204;6.590;2022-09-09T14:47:12;0.65;;;0.30;;
67037;SDS011;53940;53.204;6.590;2022-09-09T14:50:13;0.55;;;0.30;;
67037;SDS011;53940;53.204;6.590;2022-09-09T14:53:13;0.30;;;0.25;;
67037;SDS011;53940;53.204;6.590;2022-09-09T14:56:17;0.32;;;0.25;;
67037;SDS011;53940;53.204;6.590;2022-09-09T14:59:20;0.47;;;0.22;;
67037;SDS011;53940;53.204;6.590;2022-09-09T15:02:20;0.38;;;0.20;;
67037;SDS011;53940;53.204;6.590;2022-09-09T15:05:21;0.40;;;0.20;;
67037;SDS011;53940;53.204;6.590;2022-09-09T15:08:22;0.40;;;0.28;;
67037;SDS011;53940;53.204;6.590;2022-09-09T15:11:22;1.00;;;0.30;;
67037;SDS011;53940;53.204;6.590;2022-09-09T15:14:24;0.93;;;0.30;;
67037;SDS011;53940;53.204;6.590;2022-09-09T15:17:26;0.10;;;0.10;;
67037;SDS011;53940;53.204;6.590;2022-09-09T15:20:27;0.93;;;0.30;;
67037;SDS011;53940;53.204;6.590;2022-09-09T15:23:27;0.57;;;0.25;;
67037;SDS011;53940;53.204;6.590;2022-09-09T15:26:28;0.20;;;0.20;;
67037;SDS011;53940;53.204;6.590;2022-09-09T15:29:30;1.23;;;0.22;;
67037;SDS011;53940;53.204;6.590;2022-09-09T15:32:30;0.30;;;0.30;;
67037;SDS011;53940;53.204;6.590;2022-09-09T15:35:30;0.57;;;0.32;;
67037;SDS011;53940;53.204;6.590;2022-09-09T15:38:30;0.22;;;0.17;;
67037;SDS011;53940;53.204;6.590;2022-09-09T15:41:31;1.13;;;0.30;;
67037;SDS011;53940;53.204;6.590;2022-09-09T15:44:38;0.38;;;0.28;;
67037;SDS011;53940;53.204;6.590;2022-09-09T15:47:39;1.30;;;0.50;;
67037;SDS011;53940;53.204;6.590;2022-09-09T15:50:39;0.75;;;0.30;;
67037;SDS011;53940;53.204;6.590;2022-09-09T15:53:40;0.77;;;0.30;;
67037;SDS011;53940;53.204;6.590;2022-09-09T15:56:40;0.30;;;0.20;;
67037;SDS011;53940;53.204;6.590;2022-09-09T15:59:41;0.50;;;0.30;;
67037;SDS011;53940;53.204;6.590;2022-09-09T16:02:48;0.80;;;0.30;;
67037;SDS011;53940;53.204;6.590;2022-09-09T16:05:52;0.38;;;0.20;;
67037;SDS011;53940;53.204;6.590;2022-09-09T16:08:52;0.35;;;0.30;;
67037;SDS011;53940;53.204;6.590;2022-09-09T16:11:55;0.60;;;0.20;;
67037;SDS011;53940;53.204;6.590;2022-09-09T16:14:58;0.43;;;0.30;;
67037;SDS011;53940;53.204;6.590;2022-09-09T16:17:59;0.70;;;0.38;;
67037;SDS011;53940;53.204;6.590;2022-09-09T16:20:59;0.30;;;0.20;;
67037;SDS011;53940;53.204;6.590;2022-09-09T16:24:01;0.50;;;0.20;;
67037;SDS011;53940;53.204;6.590;2022-09-09T16:27:02;0.35;;;0.20;;
67037;SDS011;53940;53.204;6.590;2022-09-09T16:30:03;0.50;;;0.30;;
67037;SDS011;53940;53.204;6.590;2022-09-09T16:33:04;0.28;;;0.20;;
67037;SDS011;53940;53.204;6.590;2022-09-09T16:36:08;0.30;;;0.22;;
67037;SDS011;53940;53.204;6.590;2022-09-09T16:39:11;0.93;;;0.30;;
67037;SDS011;53940;53.204;6.590;2022-09-09T16:42:13;0.30;;;0.28;;
67037;SDS011;53940;53.204;6.590;2022-09-09T16:45:13;0.57;;;0.30;;
67037;SDS011;53940;53.204;6.590;2022-09-09T16:48:14;0.40;;;0.20;;
67037;SDS011;53940;53.204;6.590;2022-09-09T16:51:16;0.40;;;0.30;;
67037;SDS011;53940;53.204;6.590;2022-09-09T16:54:18;0.30;;;0.20;;
67037;SDS011;53940;53.204;6.590;2022-09-09T16:57:19;1.23;;;0.20;;
67037;SDS011;53940;53.204;6.590;2022-09-09T17:00:19;0.20;;;0.20;;
67037;SDS011;53940;53.204;6.590;2022-09-09T17:03:19;0.45;;;0.30;;
67037;SDS011;53940;53.204;6.590;2022-09-09T17:06:20;0.30;;;0.20;;
67037;SDS011;53940;53.204;6.590;2022-09-09T17:09:22;0.55;;;0.20;;
67037;SDS011;53940;53.204;6.590;2022-09-09T17:12:23;0.40;;;0.30;;
67037;SDS011;53940;53.204;6.590;2022-09-09T17:15:23;0.40;;;0.20;;
67037;SDS011;53940;53.204;6.590;2022-09-09T17:18:25;0.35;;;0.20;;
67037;SDS011;53940;53.204;6.590;2022-09-09T17:21:28;0.98;;;0.40;;
67037;SDS011;53940;53.204;6.590;2022-09-09T17:24:29;0.43;;;0.20;;
67037;SDS011;53940;53.204;6.590;2022-09-09T17:27:29;0.32;;;0.30;;
67037;SDS011;53940;53.204;6.590;2022-09-09T17:30:33;0.80;;;0.22;;
67037;SDS011;53940;53.204;6.590;2022-09-09T17:33:38;0.55;;;0.20;;
67037;SDS011;53940;53.204;6.590;2022-09-09T17:36:39;0.60;;;0.30;;
67037;SDS011;53940;53.204;6.590;2022-09-09T17:39:39;2.85;;;0.35;;
67037;SDS011;53940;53.204;6.590;2022-09-09T17:42:40;0.43;;;0.20;;
67037;SDS011;53940;53.204;6.590;2022-09-09T17:45:40;0.65;;;0.22;;
67037;SDS011;53940;53.204;6.590;2022-09-09T17:48:41;0.90;;;0.30;;
67037;SDS011;53940;53.204;6.590;2022-09-09T17:51:43;0.70;;;0.30;;
67037;SDS011;53940;53.204;6.590;2022-09-09T17:54:44;0.75;;;0.30;;
67037;SDS011;53940;53.204;6.590;2022-09-09T17:57:44;0.10;;;0.10;;
67037;SDS011;53940;53.204;6.590;2022-09-09T18:00:46;1.30;;;0.28;;
67037;SDS011;53940;53.204;6.590;2022-09-09T18:03:46;0.35;;;0.20;;
67037;SDS011;53940;53.204;6.590;2022-09-09T18:06:48;0.43;;;0.20;;
67037;SDS011;53940;53.204;6.590;2022-09-09T18:09:50;0.80;;;0.45;;
67037;SDS011;53940;53.204;6.590;2022-09-09T18:12:51;1.77;;;0.40;;
67037;SDS011;53940;53.204;6.590;2022-09-09T18:15:51;0.38;;;0.20;;
67037;SDS011;53940;53.204;6.590;2022-09-09T18:18:53;0.47;;;0.30;;
67037;SDS011;53940;53.204;6.590;2022-09-09T18:21:54;1.02;;;0.30;;
67037;SDS011;53940;53.204;6.590;2022-09-09T18:24:55;1.08;;;0.28;;
67037;SDS011;53940;53.204;6.590;2022-09-09T18:27:56;0.38;;;0.20;;
67037;SDS011;53940;53.204;6.590;2022-09-09T18:30:57;0.50;;;0.20;;
67037;SDS011;53940;53.204;6.590;2022-09-09T18:33:58;1.20;;;0.68;;
67037;SDS011;53940;53.204;6.590;2022-09-09T18:37:00;0.70;;;0.30;;
67037;SDS011;53940;53.204;6.590;2022-09-09T18:40:00;0.45;;;0.20;;
67037;SDS011;53940;53.204;6.590;2022-09-09T18:43:01;0.15;;;0.10;;
67037;SDS011;53940;53.204;6.590;2022-09-09T18:46:02;0.68;;;0.28;;
67037;SDS011;53940;53.204;6.590;2022-09-09T18:49:03;0.85;;;0.30;;
67037;SDS011;53940;53.204;6.590;2022-09-09T18:52:04;0.60;;;0.30;;
67037;SDS011;53940;53.204;6.590;2022-09-09T18:55:05;0.30;;;0.20;;
67037;SDS011;53940;53.204;6.590;2022-09-09T18:58:07;0.20;;;0.20;;
67037;SDS011;53940;53.204;6.590;2022-09-09T19:01:08;0.10;;;0.10;;
67037;SDS011;53940;53.204;6.590;2022-09-09T19:04:13;0.85;;;0.30;;
67037;SDS011;53940;53.204;6.590;2022-09-09T19:07:13;0.28;;;0.20;;
67037;SDS011;53940;53.204;6.590;2022-09-09T19:10:14;0.10;;;0.10;;
67037;SDS011;53940;53.204;6.590;2022-09-09T19:13:14;0.70;;;0.20;;
67037;SDS011;53940;53.204;6.590;2022-09-09T19:16:15;1.25;;;0.35;;
67037;SDS011;53940;53.204;6.590;2022-09-09T19:19:17;0.40;;;0.13;;
67037;SDS011;53940;53.204;6.590;2022-09-09T19:22:22;0.47;;;0.20;;
67037;SDS011;53940;53.204;6.590;2022-09-09T19:25:25;0.50;;;0.20;;
67037;SDS011;53940;53.204;6.590;2022-09-09T19:28:25;0.20;;;0.20;;
67037;SDS011;53940;53.204;6.590;2022-09-09T19:31:26;0.20;;;0.20;;
67037;SDS011;53940;53.204;6.590;2022-09-09T19:34:27;0.35;;;0.20;;
67037;SDS011;53940;53.204;6.590;2022-09-09T19:37:27;0.30;;;0.10;;
67037;SDS011;53940;53.204;6.590;2022-09-09T19:40:28;0.20;;;0.17;;
67037;SDS011;53940;53.204;6.590;2022-09-09T19:43:29;0.90;;;0.20;;
67037;SDS011;53940;53.204;6.590;2022-09-09T19:46:30;0.43;;;0.20;;
67037;SDS011;53940;53.204;6.590;2022-09-09T19:49:32;0.10;;;0.10;;
67037;SDS011;53940;53.204;6.590;2022-09-09T19:52:33;0.40;;;0.13;;
67037;SDS011;53940;53.204;6.590;2022-09-09T19:55:37;0.57;;;0.20;;
67037;SDS011;53940;53.204;6.590;2022-09-09T19:58:38;0.25;;;0.10;;
67037;SDS011;53940;53.204;6.590;2022-09-09T20:01:40;0.73;;;0.20;;
67037;SDS011;53940;53.204;6.590;2022-09-09T20:04:45;0.33;;;0.20;;
67037;SDS011;53940;53.204;6.590;2022-09-09T20:07:46;0.28;;;0.10;;